Time;durP1;ratioP1;P1;durP2;ratioP2;P2;SDS_P1;SDS_P2;PMS_P1;PMS_P2;Temp;Humidity;BMP_temperature;BMP_pressure;BME280_temperature;BME280_humidity;BME280_pressure;Samples;Min_cycle;Max_cycle;Signal;HPM_P1;HPM_P2
2021/01/17 00:02:22;;;;;;;32.45;30.00;;;;;;;;;;5036722;28;20192;-81
2021/01/17 00:04:49;;;;;;;32.88;30.38;;;;;;;;;;5037008;28;20197;-81
2021/01/17 00:07:16;;;;;;;32.10;29.70;;;;;;;;;;5037368;28;20267;-81
2021/01/17 00:09:43;;;;;;;33.88;31.20;;;;;;;;;;5036897;28;20200;-81
2021/01/17 00:12:10;;;;;;;32.67;30.05;;;;;;;;;;5037050;28;20560;-81
2021/01/17 00:14:37;;;;;;;32.72;30.13;;;;;;;;;;5036289;28;20240;-81
2021/01/17 00:17:04;;;;;;;34.28;31.52;;;;;;;;;;5036711;28;20192;-81
2021/01/17 00:19:32;;;;;;;32.55;29.90;;;;;;;;;;5036915;28;20236;-81
2021/01/17 00:21:59;;;;;;;33.42;30.63;;;;;;;;;;5036365;28;20198;-81
2021/01/17 00:24:26;;;;;;;31.88;29.35;;;;;;;;;;5037111;28;20196;-81
2021/01/17 00:26:53;;;;;;;33.22;30.52;;;;;;;;;;5036354;28;20197;-81
2021/01/17 00:29:19;;;;;;;33.40;30.55;;;;;;;;;;5036669;28;20196;-81
2021/01/17 00:31:49;;;;;;;33.15;30.40;;;;;;;;;;5036130;28;20197;-81
2021/01/17 00:34:16;;;;;;;32.17;29.75;;;;;;;;;;5036222;28;20223;-81
2021/01/17 00:36:44;;;;;;;33.58;30.95;;;;;;;;;;5036254;28;20558;-80
2021/01/17 00:39:11;;;;;;;31.38;28.77;;;;;;;;;;5036073;28;20266;-81
2021/01/17 00:41:38;;;;;;;32.08;29.45;;;;;;;;;;5036382;28;20193;-81
2021/01/17 00:44:05;;;;;;;33.72;30.83;;;;;;;;;;5035944;28;20189;-81
2021/01/17 00:46:39;;;;;;;32.78;30.17;;;;;;;;;;5036190;28;20545;-81
2021/01/17 00:49:06;;;;;;;33.15;30.45;;;;;;;;;;5036160;28;20196;-81
2021/01/17 00:51:41;;;;;;;32.15;29.42;;;;;;;;;;5036154;28;20188;-81
2021/01/17 00:54:09;;;;;;;33.03;30.35;;;;;;;;;;5036035;28;20585;-81
2021/01/17 00:56:36;;;;;;;32.78;30.10;;;;;;;;;;5035885;28;20220;-81
2021/01/17 00:59:03;;;;;;;32.30;29.70;;;;;;;;;;5036012;28;20231;-81
2021/01/17 01:01:31;;;;;;;31.13;28.55;;;;;;;;;;5035850;28;20189;-81
2021/01/17 01:03:58;;;;;;;33.45;30.55;;;;;;;;;;5035902;28;20202;-81
2021/01/17 01:06:24;;;;;;;32.97;30.38;;;;;;;;;;5035727;28;20200;-81
2021/01/17 01:08:51;;;;;;;31.92;29.40;;;;;;;;;;5035948;28;20189;-81
2021/01/17 01:11:19;;;;;;;32.45;29.92;;;;;;;;;;5035876;28;20193;-81
2021/01/17 01:13:46;;;;;;;32.90;30.30;;;;;;;;;;5035553;28;20193;-81
2021/01/17 01:16:13;;;;;;;31.42;28.83;;;;;;;;;;5035128;28;20237;-81
2021/01/17 01:18:40;;;;;;;30.42;28.13;;;;;;;;;;5035334;28;20216;-81
2021/01/17 01:21:07;;;;;;;31.42;28.92;;;;;;;;;;5035243;28;20193;-81
2021/01/17 01:23:34;;;;;;;30.75;28.23;;;;;;;;;;5035537;28;20207;-81
2021/01/17 01:26:01;;;;;;;29.92;27.58;;;;;;;;;;5035194;28;20247;-81
2021/01/17 01:28:29;;;;;;;32.08;29.27;;;;;;;;;;5035446;28;20193;-80
2021/01/17 01:30:57;;;;;;;30.30;27.92;;;;;;;;;;5034995;28;20200;-81
2021/01/17 01:33:24;;;;;;;30.35;27.95;;;;;;;;;;5035453;28;20193;-81
2021/01/17 01:35:51;;;;;;;28.92;26.55;;;;;;;;;;5035074;28;20255;-81
2021/01/17 01:38:18;;;;;;;31.55;29.05;;;;;;;;;;5035234;28;20255;-81
2021/01/17 01:40:54;;;;;;;30.60;28.30;;;;;;;;;;5035220;28;20196;-81
2021/01/17 01:43:22;;;;;;;31.65;28.77;;;;;;;;;;5035025;28;20192;-81
2021/01/17 01:45:50;;;;;;;31.30;28.80;;;;;;;;;;5034826;28;20204;-81
2021/01/17 01:48:17;;;;;;;32.58;29.98;;;;;;;;;;5034412;28;20630;-81
2021/01/17 01:50:45;;;;;;;30.73;28.23;;;;;;;;;;5034695;28;20205;-81
2021/01/17 01:53:12;;;;;;;30.90;28.50;;;;;;;;;;5034601;28;20193;-80
2021/01/17 01:55:39;;;;;;;29.63;27.30;;;;;;;;;;5034587;28;20200;-81
2021/01/17 01:58:06;;;;;;;31.58;28.70;;;;;;;;;;5034659;28;20189;-81
2021/01/17 02:00:34;;;;;;;31.58;28.77;;;;;;;;;;5035457;28;20219;-81
2021/01/17 02:03:02;;;;;;;28.92;26.63;;;;;;;;;;5034619;28;20186;-81
2021/01/17 02:05:28;;;;;;;34.72;31.85;;;;;;;;;;5035201;28;20654;-81
2021/01/17 02:08:14;;;;;;;35.45;32.30;;;;;;;;;;5034371;28;20251;-81
2021/01/17 02:10:41;;;;;;;33.60;30.60;;;;;;;;;;5034338;28;20546;-81
2021/01/17 02:13:12;;;;;;;35.35;32.08;;;;;;;;;;5034451;28;20209;-81
2021/01/17 02:15:40;;;;;;;34.95;31.77;;;;;;;;;;5034164;28;20576;-80
2021/01/17 02:18:09;;;;;;;35.03;31.98;;;;;;;;;;5034516;28;20193;-81
2021/01/17 02:20:37;;;;;;;33.53;30.45;;;;;;;;;;5034093;28;20193;-81
2021/01/17 02:23:08;;;;;;;35.38;32.38;;;;;;;;;;5034851;28;20539;-81
2021/01/17 02:25:38;;;;;;;35.20;31.88;;;;;;;;;;5016762;28;20665;-81
2021/01/17 02:28:06;;;;;;;35.45;32.15;;;;;;;;;;5034215;28;20223;-81
2021/01/17 02:30:35;;;;;;;34.65;31.52;;;;;;;;;;5034035;28;20199;-81
2021/01/17 02:33:03;;;;;;;34.45;31.35;;;;;;;;;;5034039;28;20185;-81
2021/01/17 02:35:31;;;;;;;35.08;31.67;;;;;;;;;;5033957;28;20554;-81
2021/01/17 02:38:05;;;;;;;36.63;33.22;;;;;;;;;;5034207;28;20193;-81
2021/01/17 02:40:39;;;;;;;34.95;31.70;;;;;;;;;;5033609;28;20228;-81
2021/01/17 02:43:08;;;;;;;35.10;31.90;;;;;;;;;;5033746;28;20216;-81
2021/01/17 02:45:35;;;;;;;35.00;31.60;;;;;;;;;;5034947;28;20216;-81
2021/01/17 02:48:02;;;;;;;34.13;30.98;;;;;;;;;;5033718;28;20200;-81
2021/01/17 02:50:29;;;;;;;37.25;33.63;;;;;;;;;;5033704;28;20184;-81
2021/01/17 02:52:58;;;;;;;35.80;32.40;;;;;;;;;;5033901;28;20191;-81
2021/01/17 02:55:26;;;;;;;37.08;33.28;;;;;;;;;;5033555;28;20224;-81
2021/01/17 02:57:55;;;;;;;36.50;33.00;;;;;;;;;;5033867;28;20207;-81
2021/01/17 03:00:25;;;;;;;35.55;32.13;;;;;;;;;;5033930;28;20620;-81
2021/01/17 03:02:53;;;;;;;36.75;33.25;;;;;;;;;;5033642;28;20546;-81
2021/01/17 03:05:21;;;;;;;37.65;33.67;;;;;;;;;;5033521;28;20200;-81
2021/01/17 03:07:49;;;;;;;35.35;31.98;;;;;;;;;;5033528;28;20647;-81
2021/01/17 03:10:16;;;;;;;36.33;33.08;;;;;;;;;;5033392;28;20322;-81
2021/01/17 03:12:43;;;;;;;38.30;34.65;;;;;;;;;;5016046;28;20568;-81
2021/01/17 03:15:11;;;;;;;36.08;32.60;;;;;;;;;;5033263;28;20224;-81
2021/01/17 03:17:39;;;;;;;36.30;32.72;;;;;;;;;;5033783;28;20196;-81
2021/01/17 03:20:06;;;;;;;37.97;34.22;;;;;;;;;;5033108;28;20237;-81
2021/01/17 03:22:33;;;;;;;37.50;34.03;;;;;;;;;;5033341;28;20227;-81
2021/01/17 03:25:00;;;;;;;37.25;33.80;;;;;;;;;;5033415;28;20713;-81
2021/01/17 03:27:27;;;;;;;36.17;32.90;;;;;;;;;;5033641;28;20611;-81
2021/01/17 03:29:54;;;;;;;36.42;32.83;;;;;;;;;;5033377;28;20188;-81
2021/01/17 03:32:21;;;;;;;37.83;33.55;;;;;;;;;;5033604;28;20259;-81
2021/01/17 03:34:49;;;;;;;37.58;33.78;;;;;;;;;;5033358;28;20235;-81
2021/01/17 03:37:16;;;;;;;38.95;35.13;;;;;;;;;;5033307;28;20650;-81
2021/01/17 03:39:43;;;;;;;37.95;34.35;;;;;;;;;;5033216;28;20266;-81
2021/01/17 03:42:10;;;;;;;38.42;34.58;;;;;;;;;;5033234;28;20193;-81
2021/01/17 03:44:37;;;;;;;38.03;34.08;;;;;;;;;;5033155;28;20185;-81
2021/01/17 03:47:04;;;;;;;37.85;34.15;;;;;;;;;;5033540;28;20193;-81
2021/01/17 03:49:31;;;;;;;35.90;32.55;;;;;;;;;;5033345;28;20576;-81
2021/01/17 03:51:59;;;;;;;37.17;33.80;;;;;;;;;;5033454;28;20226;-81
2021/01/17 03:54:26;;;;;;;38.22;34.60;;;;;;;;;;5033005;28;20225;-81
2021/01/17 03:56:53;;;;;;;35.47;32.15;;;;;;;;;;5033468;28;20608;-81
2021/01/17 03:59:20;;;;;;;35.63;32.35;;;;;;;;;;5033670;28;20260;-81
2021/01/17 04:01:47;;;;;;;39.03;34.97;;;;;;;;;;5033302;28;20284;-81
2021/01/17 04:04:14;;;;;;;39.25;35.50;;;;;;;;;;5033390;28;20232;-81
2021/01/17 04:06:41;;;;;;;38.72;34.83;;;;;;;;;;5033133;28;20209;-81
2021/01/17 04:09:09;;;;;;;40.97;36.75;;;;;;;;;;5032902;28;20211;-81
2021/01/17 04:11:36;;;;;;;38.83;34.92;;;;;;;;;;5035904;28;20193;-81
2021/01/17 04:14:03;;;;;;;40.13;35.95;;;;;;;;;;5036307;28;20603;-81
2021/01/17 04:16:30;;;;;;;42.10;37.35;;;;;;;;;;5036830;28;20196;-81
2021/01/17 04:18:57;;;;;;;38.72;35.08;;;;;;;;;;5036295;28;20223;-81
2021/01/17 04:21:24;;;;;;;39.67;35.83;;;;;;;;;;5036650;28;20189;-81
2021/01/17 04:23:51;;;;;;;39.65;35.55;;;;;;;;;;5036768;28;20197;-81
2021/01/17 04:26:19;;;;;;;38.83;34.90;;;;;;;;;;5036363;28;20204;-81
2021/01/17 04:28:46;;;;;;;39.00;35.17;;;;;;;;;;5036690;28;20200;-81
2021/01/17 04:31:12;;;;;;;38.50;34.85;;;;;;;;;;5036472;28;20197;-81
2021/01/17 04:33:39;;;;;;;36.33;32.80;;;;;;;;;;5036584;28;20211;-81
2021/01/17 04:36:08;;;;;;;36.72;33.38;;;;;;;;;;5036117;28;20189;-81
2021/01/17 04:38:36;;;;;;;37.85;34.33;;;;;;;;;;5036081;28;20650;-81
2021/01/17 04:41:03;;;;;;;39.65;35.67;;;;;;;;;;5036040;28;20204;-81
2021/01/17 04:43:32;;;;;;;40.10;36.00;;;;;;;;;;5036012;28;20205;-81
2021/01/17 04:46:03;;;;;;;37.33;33.42;;;;;;;;;;5035741;28;20262;-81
2021/01/17 04:48:30;;;;;;;38.80;34.80;;;;;;;;;;5035967;28;20642;-81
2021/01/17 04:51:01;;;;;;;40.13;36.25;;;;;;;;;;5035938;28;20700;-81
2021/01/17 04:53:28;;;;;;;38.72;34.63;;;;;;;;;;5035941;28;20235;-81
2021/01/17 04:56:01;;;;;;;40.05;35.80;;;;;;;;;;5035857;28;20192;-81
2021/01/17 04:58:31;;;;;;;38.72;34.75;;;;;;;;;;5035981;28;20189;-81
2021/01/17 05:00:59;;;;;;;40.63;36.60;;;;;;;;;;5035779;28;20197;-81
2021/01/17 05:03:32;;;;;;;40.10;36.25;;;;;;;;;;5036035;28;20199;-81
2021/01/17 05:06:07;;;;;;;38.92;35.25;;;;;;;;;;5035553;28;20736;-81
2021/01/17 05:08:34;;;;;;;37.75;34.05;;;;;;;;;;5035694;28;20192;-81
2021/01/17 05:11:03;;;;;;;36.95;33.30;;;;;;;;;;5035684;28;20193;-81
2021/01/17 05:13:37;;;;;;;37.63;33.92;;;;;;;;;;5035879;28;20204;-81
2021/01/17 05:16:07;;;;;;;39.25;35.15;;;;;;;;;;5035303;28;20249;-81
2021/01/17 05:18:34;;;;;;;39.10;35.30;;;;;;;;;;5035309;28;20197;-81
2021/01/17 05:21:02;;;;;;;41.45;37.42;;;;;;;;;;5035377;28;20630;-81
2021/01/17 05:23:33;;;;;;;43.20;38.55;;;;;;;;;;5034645;28;20677;-81
2021/01/17 05:26:00;;;;;;;39.72;35.75;;;;;;;;;;5035392;28;20212;-81
2021/01/17 05:28:27;;;;;;;41.90;37.40;;;;;;;;;;5035525;28;20631;-81
2021/01/17 05:30:56;;;;;;;47.60;37.80;;;;;;;;;;5035072;28;20193;-81
2021/01/17 05:33:27;;;;;;;37.00;33.20;;;;;;;;;;5035260;28;20250;-81
2021/01/17 05:35:54;;;;;;;41.50;36.65;;;;;;;;;;5035024;28;20282;-81
2021/01/17 05:38:21;;;;;;;38.75;33.65;;;;;;;;;;5035085;28;20192;-81
2021/01/17 05:40:48;;;;;;;41.58;37.35;;;;;;;;;;5034816;28;20217;-81
2021/01/17 05:43:14;;;;;;;40.35;36.25;;;;;;;;;;5035120;28;20300;-81
2021/01/17 05:45:41;;;;;;;39.92;35.92;;;;;;;;;;5034996;28;20211;-81
2021/01/17 05:48:10;;;;;;;41.75;37.25;;;;;;;;;;5034788;28;20204;-81
2021/01/17 05:50:43;;;;;;;38.92;35.03;;;;;;;;;;5035095;28;20201;-81
2021/01/17 05:53:10;;;;;;;42.08;37.70;;;;;;;;;;5034680;28;20220;-81
2021/01/17 05:55:37;;;;;;;40.00;35.80;;;;;;;;;;5034641;28;20194;-81
2021/01/17 05:58:22;;;;;;;42.30;37.75;;;;;;;;;;5034786;28;20193;-81
2021/01/17 06:00:50;;;;;;;42.05;37.75;;;;;;;;;;5034467;28;20212;-81
2021/01/17 06:03:25;;;;;;;43.50;37.63;;;;;;;;;;5034797;28;20629;-81
2021/01/17 06:05:58;;;;;;;37.17;33.55;;;;;;;;;;5034498;28;20573;-81
2021/01/17 06:08:26;;;;;;;46.15;39.85;;;;;;;;;;5034422;28;20235;-81
2021/01/17 06:10:53;;;;;;;41.08;36.40;;;;;;;;;;5034441;28;20189;-81
2021/01/17 06:13:23;;;;;;;42.30;37.83;;;;;;;;;;5034538;28;20200;-81
2021/01/17 06:15:50;;;;;;;43.65;38.35;;;;;;;;;;5034182;28;20237;-81
2021/01/17 06:18:19;;;;;;;43.13;38.50;;;;;;;;;;5034269;28;20659;-81
2021/01/17 06:20:46;;;;;;;42.58;37.70;;;;;;;;;;5034308;28;20217;-81
2021/01/17 06:23:20;;;;;;;44.25;39.40;;;;;;;;;;5034590;28;20227;-81
2021/01/17 06:25:47;;;;;;;42.92;38.30;;;;;;;;;;5034586;28;20555;-81
2021/01/17 06:28:14;;;;;;;41.38;37.00;;;;;;;;;;5034270;28;20197;-81
2021/01/17 06:30:42;;;;;;;41.05;36.88;;;;;;;;;;5034802;28;20204;-81
2021/01/17 06:33:09;;;;;;;41.08;36.58;;;;;;;;;;5033836;28;20635;-81
2021/01/17 06:35:38;;;;;;;44.00;39.35;;;;;;;;;;5034334;28;20193;-81
2021/01/17 06:38:19;;;;;;;44.05;39.50;;;;;;;;;;5034341;28;20198;-81
2021/01/17 06:40:48;;;;;;;40.05;36.05;;;;;;;;;;5032719;28;20235;-81
2021/01/17 06:43:16;;;;;;;41.72;37.15;;;;;;;;;;5034032;28;20189;-81
2021/01/17 06:45:43;;;;;;;44.10;39.30;;;;;;;;;;5033973;28;20197;-81
2021/01/17 06:48:21;;;;;;;43.15;38.63;;;;;;;;;;5034085;28;20576;-81
2021/01/17 06:50:48;;;;;;;45.83;39.38;;;;;;;;;;5033964;28;20189;-82
2021/01/17 06:53:21;;;;;;;45.55;38.58;;;;;;;;;;5033640;28;20225;-81
2021/01/17 06:55:49;;;;;;;46.97;40.38;;;;;;;;;;5034052;28;20192;-81
2021/01/17 06:58:18;;;;;;;50.03;43.45;;;;;;;;;;5033686;28;20572;-81
2021/01/17 07:00:46;;;;;;;47.78;41.20;;;;;;;;;;5033761;28;20248;-80
2021/01/17 07:03:16;;;;;;;44.70;39.78;;;;;;;;;;5033944;28;20196;-81
2021/01/17 07:05:50;;;;;;;49.33;41.33;;;;;;;;;;5033613;28;20208;-81
2021/01/17 07:08:34;;;;;;;44.25;39.45;;;;;;;;;;5033842;28;20196;-81
2021/01/17 07:11:12;;;;;;;41.70;37.35;;;;;;;;;;5033666;28;20231;-81
2021/01/17 07:13:43;;;;;;;43.55;38.92;;;;;;;;;;5033878;28;20196;-81
2021/01/17 07:16:14;;;;;;;43.28;38.72;;;;;;;;;;5033217;28;20244;-81
2021/01/17 07:18:46;;;;;;;45.53;39.90;;;;;;;;;;5033694;28;20189;-81
2021/01/17 07:21:14;;;;;;;46.35;41.25;;;;;;;;;;5033751;28;20197;-81
2021/01/17 07:23:41;;;;;;;45.63;38.97;;;;;;;;;;5033741;28;20587;-81
2021/01/17 07:26:10;;;;;;;46.80;39.60;;;;;;;;;;5033435;28;20185;-81
2021/01/17 07:28:38;;;;;;;47.78;41.38;;;;;;;;;;5033606;28;20566;-81
2021/01/17 07:31:09;;;;;;;45.50;39.92;;;;;;;;;;5032986;28;20197;-81
2021/01/17 07:33:37;;;;;;;47.17;42.25;;;;;;;;;;5033294;28;20635;-81
2021/01/17 07:36:05;;;;;;;46.25;38.83;;;;;;;;;;5033338;28;20189;-81
2021/01/17 07:38:33;;;;;;;44.95;39.80;;;;;;;;;;5033596;28;20247;-81
2021/01/17 07:41:00;;;;;;;45.85;40.88;;;;;;;;;;5032893;28;20235;-81
2021/01/17 07:43:29;;;;;;;47.92;41.92;;;;;;;;;;5033269;28;20257;-81
2021/01/17 07:45:57;;;;;;;45.53;40.33;;;;;;;;;;5018084;28;20201;-80
2021/01/17 07:48:24;;;;;;;44.50;39.53;;;;;;;;;;5037375;28;20203;-82
2021/01/17 07:50:52;;;;;;;45.85;40.85;;;;;;;;;;5037103;28;20651;-81
2021/01/17 07:53:35;;;;;;;45.80;40.72;;;;;;;;;;5037067;28;20224;-81
2021/01/17 07:56:06;;;;;;;47.45;39.55;;;;;;;;;;5037170;28;20254;-82
2021/01/17 07:58:34;;;;;;;48.35;40.15;;;;;;;;;;5037260;28;20201;-82
2021/01/17 08:01:01;;;;;;;46.03;41.13;;;;;;;;;;5036816;28;20253;-82
2021/01/17 08:03:28;;;;;;;47.92;42.55;;;;;;;;;;5037455;28;20546;-80
2021/01/17 08:05:56;;;;;;;41.22;36.97;;;;;;;;;;5036952;28;20255;-79
2021/01/17 08:08:44;;;;;;;46.97;40.60;;;;;;;;;;5036645;28;20631;-79
2021/01/17 08:11:11;;;;;;;49.72;43.80;;;;;;;;;;5032194;28;20201;-81
2021/01/17 08:13:43;;;;;;;46.13;41.03;;;;;;;;;;5036873;28;20270;-83
2021/01/17 08:16:11;;;;;;;43.88;39.55;;;;;;;;;;5036584;28;20241;-80
2021/01/17 08:18:38;;;;;;;46.00;40.13;;;;;;;;;;5036516;28;20228;-79
2021/01/17 08:21:29;;;;;;;51.05;43.38;;;;;;;;;;5036604;28;20224;-79
2021/01/17 08:24:16;;;;;;;47.40;42.22;;;;;;;;;;5025944;28;20208;-79
2021/01/17 08:26:58;;;;;;;50.70;45.22;;;;;;;;;;5031711;28;20552;-79
2021/01/17 08:29:26;;;;;;;45.55;40.65;;;;;;;;;;5036442;28;20557;-79
2021/01/17 08:31:53;;;;;;;48.67;42.80;;;;;;;;;;5036225;28;20704;-79
2021/01/17 08:34:25;;;;;;;48.45;43.22;;;;;;;;;;5036269;28;20188;-80
2021/01/17 08:36:52;;;;;;;47.65;42.63;;;;;;;;;;5036436;28;20185;-79
2021/01/17 08:39:34;;;;;;;51.30;43.88;;;;;;;;;;5036038;28;20283;-79
2021/01/17 08:42:26;;;;;;;46.67;40.85;;;;;;;;;;5035381;28;20208;-78
2021/01/17 08:44:54;;;;;;;50.78;41.65;;;;;;;;;;5035819;28;20633;-78
2021/01/17 08:47:21;;;;;;;52.92;45.20;;;;;;;;;;5035938;28;20185;-78
2021/01/17 08:49:48;;;;;;;55.42;44.80;;;;;;;;;;5018663;28;20205;-78
2021/01/17 08:52:15;;;;;;;52.47;45.60;;;;;;;;;;5036099;28;20192;-78
2021/01/17 08:54:49;;;;;;;50.70;45.35;;;;;;;;;;5035822;28;20227;-82
2021/01/17 08:57:31;;;;;;;53.67;47.80;;;;;;;;;;5018486;28;20189;-78
2021/01/17 08:59:59;;;;;;;50.40;44.95;;;;;;;;;;5035386;28;20237;-78
2021/01/17 09:02:26;;;;;;;48.28;42.13;;;;;;;;;;5035601;28;20653;-78
2021/01/17 09:04:54;;;;;;;51.85;45.88;;;;;;;;;;5035906;28;20189;-78
2021/01/17 09:07:36;;;;;;;53.55;46.95;;;;;;;;;;5035576;28;20193;-78
2021/01/17 09:10:05;;;;;;;53.47;47.47;;;;;;;;;;5035789;28;20235;-79
2021/01/17 09:12:35;;;;;;;52.17;46.38;;;;;;;;;;5035779;28;20239;-78
2021/01/17 09:15:11;;;;;;;51.47;45.53;;;;;;;;;;5017573;28;20320;-78
2021/01/17 09:17:39;;;;;;;52.17;46.53;;;;;;;;;;5035343;28;20192;-79
2021/01/17 09:20:13;;;;;;;54.58;46.60;;;;;;;;;;5035461;28;20312;-78
2021/01/17 09:22:42;;;;;;;53.60;44.80;;;;;;;;;;5035321;28;20200;-78
2021/01/17 09:25:10;;;;;;;52.65;43.95;;;;;;;;;;5035207;28;20189;-78
2021/01/17 09:27:38;;;;;;;50.70;45.20;;;;;;;;;;5035462;28;20193;-78
2021/01/17 09:30:06;;;;;;;51.50;44.38;;;;;;;;;;5035386;28;20185;-78
2021/01/17 09:32:35;;;;;;;49.70;43.40;;;;;;;;;;5035090;28;20192;-79
2021/01/17 09:35:05;;;;;;;48.10;42.80;;;;;;;;;;5035377;28;20212;-79
2021/01/17 09:37:33;;;;;;;49.15;43.80;;;;;;;;;;5035311;28;20197;-79
2021/01/17 09:40:00;;;;;;;48.58;41.97;;;;;;;;;;5035097;28;20225;-79
2021/01/17 09:42:28;;;;;;;50.25;44.70;;;;;;;;;;5034923;28;20190;-78
2021/01/17 09:44:56;;;;;;;47.75;41.85;;;;;;;;;;5035044;28;20196;-78
2021/01/17 09:47:23;;;;;;;52.00;43.58;;;;;;;;;;5034852;28;20193;-78
2021/01/17 09:49:51;;;;;;;52.67;45.80;;;;;;;;;;5034960;28;20196;-78
2021/01/17 09:52:18;;;;;;;50.30;44.92;;;;;;;;;;5035026;28;20201;-78
2021/01/17 09:54:46;;;;;;;49.38;44.10;;;;;;;;;;5034739;28;20279;-78
2021/01/17 09:57:14;;;;;;;47.70;42.75;;;;;;;;;;5034987;28;20194;-78
2021/01/17 09:59:41;;;;;;;46.58;41.80;;;;;;;;;;5034831;28;20221;-79
2021/01/17 10:02:09;;;;;;;48.90;43.40;;;;;;;;;;5034561;28;20186;-78
2021/01/17 10:04:36;;;;;;;48.95;43.72;;;;;;;;;;5035247;28;20186;-80
2021/01/17 10:07:04;;;;;;;50.35;44.88;;;;;;;;;;5034494;28;20185;-79
2021/01/17 10:09:31;;;;;;;49.13;44.13;;;;;;;;;;5034175;28;20244;-79
2021/01/17 10:12:02;;;;;;;44.33;39.67;;;;;;;;;;5034681;28;20189;-79
2021/01/17 10:14:30;;;;;;;49.92;44.65;;;;;;;;;;5034161;28;20230;-79
2021/01/17 10:16:58;;;;;;;47.58;42.47;;;;;;;;;;5034222;28;20201;-79
2021/01/17 10:19:26;;;;;;;50.65;42.30;;;;;;;;;;5016421;28;20232;-79
2021/01/17 10:21:53;;;;;;;49.22;43.88;;;;;;;;;;5033902;28;20241;-79
2021/01/17 10:24:21;;;;;;;47.58;42.67;;;;;;;;;;5034368;28;20197;-78
2021/01/17 10:26:52;;;;;;;48.50;43.47;;;;;;;;;;5034359;28;20197;-79
2021/01/17 10:29:23;;;;;;;47.88;42.58;;;;;;;;;;5034296;28;20202;-79
2021/01/17 10:31:53;;;;;;;51.20;45.38;;;;;;;;;;5034309;28;20264;-80
2021/01/17 10:34:24;;;;;;;50.83;44.55;;;;;;;;;;5033990;28;20193;-79
2021/01/17 10:36:55;;;;;;;51.67;46.00;;;;;;;;;;5034168;28;20189;-79
2021/01/17 10:39:23;;;;;;;46.30;41.42;;;;;;;;;;5032689;28;20216;-78
2021/01/17 10:41:51;;;;;;;47.20;42.33;;;;;;;;;;5034244;28;20552;-78
2021/01/17 10:44:24;;;;;;;46.58;41.65;;;;;;;;;;5033851;28;20210;-79
2021/01/17 10:46:55;;;;;;;46.60;41.65;;;;;;;;;;5034047;28;20194;-79
2021/01/17 10:49:24;;;;;;;47.28;40.75;;;;;;;;;;5033952;28;20216;-79
2021/01/17 10:51:53;;;;;;;43.97;39.40;;;;;;;;;;5033695;28;20201;-79
2021/01/17 10:54:23;;;;;;;47.50;42.70;;;;;;;;;;5033014;28;20225;-79
2021/01/17 10:56:51;;;;;;;48.63;43.33;;;;;;;;;;5033528;28;20201;-79
2021/01/17 10:59:20;;;;;;;46.88;41.80;;;;;;;;;;5033404;28;20661;-79
2021/01/17 11:01:47;;;;;;;50.05;43.75;;;;;;;;;;5033461;28;20190;-79
2021/01/17 11:04:15;;;;;;;46.78;41.72;;;;;;;;;;5033792;28;20193;-79
2021/01/17 11:06:43;;;;;;;47.03;41.90;;;;;;;;;;5033724;28;20196;-79
2021/01/17 11:09:12;;;;;;;48.53;43.15;;;;;;;;;;5033465;28;20190;-79
2021/01/17 11:11:50;;;;;;;48.20;43.20;;;;;;;;;;5033747;28;20205;-79
2021/01/17 11:14:25;;;;;;;47.45;42.50;;;;;;;;;;5033267;28;20255;-79
2021/01/17 11:16:52;;;;;;;49.10;41.75;;;;;;;;;;5033673;28;20276;-78
2021/01/17 11:19:19;;;;;;;49.20;43.90;;;;;;;;;;5033529;28;20196;-79
2021/01/17 11:21:47;;;;;;;49.95;44.72;;;;;;;;;;5036950;28;20215;-79
2021/01/17 11:24:14;;;;;;;47.08;42.35;;;;;;;;;;5037176;28;20201;-79
2021/01/17 11:26:43;;;;;;;48.53;43.55;;;;;;;;;;5037691;28;20195;-79
2021/01/17 11:29:15;;;;;;;47.17;42.10;;;;;;;;;;5037535;28;20195;-79
2021/01/17 11:31:45;;;;;;;47.85;42.70;;;;;;;;;;5037396;28;20267;-79
2021/01/17 11:34:13;;;;;;;45.92;41.08;;;;;;;;;;5037544;28;20236;-78
2021/01/17 11:36:43;;;;;;;47.92;42.78;;;;;;;;;;5037337;28;20224;-79
2021/01/17 11:39:10;;;;;;;47.00;42.20;;;;;;;;;;5036726;28;20189;-79
2021/01/17 11:41:38;;;;;;;46.63;41.95;;;;;;;;;;5037085;28;20193;-79
2021/01/17 11:44:09;;;;;;;48.92;42.55;;;;;;;;;;5036935;28;20202;-79
2021/01/17 11:46:36;;;;;;;45.97;41.38;;;;;;;;;;5037328;28;20220;-79
2021/01/17 11:49:04;;;;;;;45.70;40.97;;;;;;;;;;5037271;28;20193;-79
2021/01/17 11:51:31;;;;;;;49.08;43.08;;;;;;;;;;5037119;28;20197;-79
2021/01/17 11:54:11;;;;;;;45.42;40.63;;;;;;;;;;5037191;28;20227;-79
2021/01/17 11:56:40;;;;;;;50.72;42.50;;;;;;;;;;5037357;28;20197;-79
2021/01/17 11:59:07;;;;;;;47.20;42.20;;;;;;;;;;5036892;28;20213;-79
2021/01/17 12:01:35;;;;;;;47.13;42.30;;;;;;;;;;5036952;28;20189;-79
2021/01/17 12:04:03;;;;;;;49.15;43.90;;;;;;;;;;5037174;28;20189;-79
2021/01/17 12:06:32;;;;;;;47.33;42.42;;;;;;;;;;5037074;28;20193;-80
2021/01/17 12:09:01;;;;;;;47.70;42.63;;;;;;;;;;5036730;28;20186;-79
2021/01/17 12:11:39;;;;;;;45.13;40.53;;;;;;;;;;5036675;28;20198;-78
2021/01/17 12:14:07;;;;;;;47.67;42.42;;;;;;;;;;5036420;28;20209;-78
2021/01/17 12:16:34;;;;;;;46.20;41.55;;;;;;;;;;5037029;28;20550;-78
2021/01/17 12:19:01;;;;;;;46.03;41.25;;;;;;;;;;5036401;28;20686;-79
2021/01/17 12:21:31;;;;;;;46.65;41.90;;;;;;;;;;5036708;28;20221;-78
2021/01/17 12:23:59;;;;;;;50.65;43.65;;;;;;;;;;5037290;28;20291;-78
2021/01/17 12:26:26;;;;;;;45.92;41.13;;;;;;;;;;5036421;28;20195;-79
2021/01/17 12:28:53;;;;;;;43.35;39.00;;;;;;;;;;5036564;28;20190;-78
2021/01/17 12:31:21;;;;;;;45.50;40.90;;;;;;;;;;5035812;28;20666;-78
2021/01/17 12:33:48;;;;;;;47.08;41.75;;;;;;;;;;5036234;28;20255;-78
2021/01/17 12:36:17;;;;;;;48.50;43.70;;;;;;;;;;5036418;28;20280;-78
2021/01/17 12:38:44;;;;;;;44.45;39.92;;;;;;;;;;5036057;28;20248;-77
2021/01/17 12:41:13;;;;;;;44.67;40.10;;;;;;;;;;5036107;28;20315;-78
2021/01/17 12:43:43;;;;;;;45.53;40.83;;;;;;;;;;5035932;28;20197;-79
2021/01/17 12:46:10;;;;;;;43.92;39.42;;;;;;;;;;5036190;28;20204;-78
2021/01/17 12:48:37;;;;;;;45.88;41.20;;;;;;;;;;5036236;28;20209;-78
2021/01/17 12:51:05;;;;;;;45.88;41.00;;;;;;;;;;5036188;28;20190;-78
2021/01/17 12:53:32;;;;;;;46.40;41.10;;;;;;;;;;5035810;28;20240;-78
2021/01/17 12:55:59;;;;;;;42.10;37.85;;;;;;;;;;5035757;28;20189;-78
2021/01/17 12:58:27;;;;;;;43.22;38.70;;;;;;;;;;5036045;28;20239;-78
2021/01/17 13:00:54;;;;;;;44.63;39.97;;;;;;;;;;5035673;28;20267;-77
2021/01/17 13:03:21;;;;;;;40.75;36.90;;;;;;;;;;5036070;28;20189;-78
2021/01/17 13:05:49;;;;;;;40.08;36.05;;;;;;;;;;5035623;28;20193;-78
2021/01/17 13:08:16;;;;;;;41.50;37.53;;;;;;;;;;5035572;28;20190;-78
2021/01/17 13:10:43;;;;;;;43.30;38.92;;;;;;;;;;5035521;28;20194;-78
2021/01/17 13:13:09;;;;;;;43.95;39.35;;;;;;;;;;5035686;28;20208;-77
2021/01/17 13:15:40;;;;;;;43.58;39.33;;;;;;;;;;5035390;28;20233;-78
2021/01/17 13:18:07;;;;;;;42.20;37.90;;;;;;;;;;5035455;28;20212;-78
2021/01/17 13:20:34;;;;;;;45.10;40.30;;;;;;;;;;5035594;28;20256;-77
2021/01/17 13:23:00;;;;;;;44.17;39.83;;;;;;;;;;5035344;28;20209;-78
2021/01/17 13:25:27;;;;;;;44.35;40.17;;;;;;;;;;5035543;28;20319;-78
2021/01/17 13:27:54;;;;;;;43.53;39.33;;;;;;;;;;5035187;28;20639;-78
2021/01/17 13:30:21;;;;;;;42.45;38.30;;;;;;;;;;5035186;28;20189;-78
2021/01/17 13:32:49;;;;;;;45.97;41.22;;;;;;;;;;5035122;28;20189;-78
2021/01/17 13:35:16;;;;;;;43.55;39.30;;;;;;;;;;5035416;28;20194;-78
2021/01/17 13:37:43;;;;;;;44.42;39.90;;;;;;;;;;5035012;28;20743;-78
2021/01/17 13:40:10;;;;;;;43.53;39.42;;;;;;;;;;5034859;28;20228;-82
2021/01/17 13:42:37;;;;;;;41.55;37.45;;;;;;;;;;5034070;28;20198;-78
2021/01/17 13:45:04;;;;;;;42.50;38.22;;;;;;;;;;5034827;28;20189;-78
2021/01/17 13:47:31;;;;;;;44.03;39.45;;;;;;;;;;5035145;28;20186;-78
2021/01/17 13:50:00;;;;;;;44.78;40.47;;;;;;;;;;5034980;28;20201;-77
2021/01/17 13:52:27;;;;;;;44.83;40.33;;;;;;;;;;5034668;28;20193;-78
2021/01/17 13:54:54;;;;;;;42.35;38.10;;;;;;;;;;5035724;28;20259;-77
2021/01/17 13:57:20;;;;;;;43.58;39.22;;;;;;;;;;5035270;28;20188;-78
2021/01/17 13:59:47;;;;;;;44.75;40.42;;;;;;;;;;5034777;28;20604;-78
2021/01/17 14:02:15;;;;;;;44.47;39.83;;;;;;;;;;5034497;28;20200;-78
2021/01/17 14:04:42;;;;;;;43.75;39.05;;;;;;;;;;5035342;28;20188;-77
2021/01/17 14:07:10;;;;;;;43.33;38.72;;;;;;;;;;5034457;28;20647;-77
2021/01/17 14:09:37;;;;;;;46.20;41.20;;;;;;;;;;5017297;28;20189;-78
2021/01/17 14:12:06;;;;;;;44.80;40.40;;;;;;;;;;5016747;28;20198;-78
2021/01/17 14:14:33;;;;;;;44.42;39.97;;;;;;;;;;5034134;28;20740;-78
2021/01/17 14:17:00;;;;;;;46.10;41.50;;;;;;;;;;5034338;28;20222;-78
2021/01/17 14:19:27;;;;;;;46.88;41.78;;;;;;;;;;5034097;28;20201;-78
2021/01/17 14:21:54;;;;;;;43.15;38.65;;;;;;;;;;5034201;28;20238;-78
2021/01/17 14:24:22;;;;;;;46.92;42.15;;;;;;;;;;5034357;28;20185;-77
2021/01/17 14:26:49;;;;;;;42.75;38.63;;;;;;;;;;5034340;28;20196;-78